Aviation Digital Data Service (ADDS)

Output produced by METARs form (1258 UTC 19 January 2019)
found at http://www.aviationweather.gov/metar/data/
 
Forecast for: AMD
Text: TAF AMD ZGHA 191200Z 1912/2012 35004MPS 3500 -RA BR SCT004 BKN006 OVC040 TX08/2007Z TN04/1922Z
Forecast period: 1200 UTC 19 January 2019 to 1200 UTC 20 January 2019
Forecast type: FROM: standard forecast or significant change
Winds: from the N (350 degrees) at 9 MPH (8 knots; 4.1 m/s)
Visibility: 2.17 miles (3.49 km)
Ceiling: 600 feet AGL
Clouds: scattered clouds at 400 feet AGL
broken clouds at 600 feet AGL
overcast cloud deck at 4000 feet AGL
Weather: -RA BR  (light rain, mist)